Terminal Aerodrome Forecast
Issued by NWS

Home | Current Version | Previous Version | Text Only | Print | Product List | Glossary On
Versions: 1 2 3 4 5 6 7 8 9 10 11 12 13 14 15 16 17
625
FTUS43 KMQT 071738
TAFCMX
TAF
KCMX 071738Z 0718/0818 25022G32KT 1SM -SHSN BLSN OVC015
     FM072200 27022G32KT 1/2SM SHSN BLSN OVC012
     FM080500 31018G26KT 1SM -SHSN BLSN OVC015
     FM081000 34018G23KT 1SM -SHSN BLSN OVC020=

USA.gov is the U.S. government's official web portal to all federal, state and local government web resources and services.